createdAt,value
2023-02-22T00:03:36.170Z,91.89
2023-02-22T00:08:30.614Z,92.51
2023-02-22T00:13:25.518Z,92.66
2023-02-22T00:18:18.754Z,92.17
2023-02-22T00:23:19.931Z,91.97
2023-02-22T00:28:12.096Z,92.69
2023-02-22T00:33:06.140Z,92.53
2023-02-22T00:38:00.275Z,92.72
2023-02-22T00:42:52.929Z,93.39
2023-02-22T00:47:44.661Z,92.94
2023-02-22T00:52:37.695Z,92.61
2023-02-22T00:57:29.426Z,91.59
2023-02-22T01:02:21.277Z,92.03
2023-02-22T01:07:14.432Z,91.92
2023-02-22T01:12:06.457Z,92.23
2023-02-22T01:16:58.221Z,91.62
2023-02-22T01:21:50.377Z,92.44
2023-02-22T01:26:50.346Z,91.83
2023-02-22T01:31:44.239Z,92.50
2023-02-22T01:36:35.994Z,92.52
2023-02-22T01:41:27.739Z,92.87
2023-02-22T01:46:21.009Z,92.52
2023-02-22T01:51:41.334Z,91.56
2023-02-22T01:56:37.036Z,91.40
2023-02-22T02:01:29.840Z,91.54
2023-02-22T02:06:22.035Z,91.33
2023-02-22T02:11:14.264Z,91.89
2023-02-22T02:16:06.423Z,92.38
2023-02-22T02:21:39.649Z,92.71
2023-02-22T02:26:49.654Z,92.23
2023-02-22T02:32:00.627Z,92.18
2023-02-22T02:37:26.915Z,93.38
2023-02-22T02:42:23.179Z,93.03
2023-02-22T02:47:24.353Z,93.33
2023-02-22T02:52:20.009Z,93.00
2023-02-22T02:57:11.839Z,93.13
2023-02-22T03:02:13.319Z,93.80
2023-02-22T03:07:39.210Z,94.28
2023-02-22T03:13:05.116Z,93.95
2023-02-22T03:18:07.731Z,94.13
2023-02-22T03:23:07.315Z,94.97
2023-02-22T03:28:03.645Z,95.57
2023-02-22T03:33:09.167Z,96.13
2023-02-22T03:38:04.215Z,96.02
2023-02-22T03:43:02.577Z,96.16
2023-02-22T03:48:04.742Z,97.22
2023-02-22T03:52:59.203Z,96.94
2023-02-22T03:57:56.726Z,97.35
2023-02-22T04:02:49.278Z,97.27
2023-02-22T04:07:42.400Z,97.51
2023-02-22T04:12:34.882Z,97.50
2023-02-22T04:17:26.657Z,97.81
2023-02-22T04:22:19.073Z,97.48
2023-02-22T04:27:10.988Z,98.53
2023-02-22T04:32:02.710Z,98.82
2023-02-22T04:36:54.533Z,98.93
2023-02-22T04:41:47.571Z,98.74
2023-02-22T04:46:39.329Z,98.28
2023-02-22T04:51:31.401Z,99.08
2023-02-22T04:56:23.541Z,99.68
2023-02-22T05:01:16.899Z,100.00
2023-02-22T05:06:11.882Z,100.00
2023-02-22T05:11:03.672Z,100.00
2023-02-22T05:15:55.365Z,100.00
2023-02-22T05:20:47.108Z,100.00
2023-02-22T05:25:38.852Z,100.00
2023-02-22T05:30:34.409Z,100.00
2023-02-22T05:35:26.862Z,100.00
2023-02-22T05:40:26.425Z,100.00
2023-02-22T05:45:20.161Z,100.00
2023-02-22T05:50:14.447Z,100.00
2023-02-22T05:55:07.770Z,100.00
2023-02-22T05:59:59.753Z,100.00
2023-02-22T06:04:53.852Z,100.00
2023-02-22T06:09:45.546Z,100.00
2023-02-22T06:14:37.279Z,100.00
2023-02-22T06:19:29.049Z,100.00
2023-02-22T06:24:21.631Z,100.00
2023-02-22T06:29:13.841Z,100.00
2023-02-22T06:34:05.488Z,100.00
2023-02-22T06:38:57.745Z,100.00
2023-02-22T06:43:49.414Z,100.00
2023-02-22T06:48:41.064Z,100.00
2023-02-22T06:53:32.694Z,100.00
2023-02-22T06:58:24.358Z,100.00
2023-02-22T07:03:16.566Z,100.00
2023-02-22T07:08:11.023Z,100.00
2023-02-22T07:13:04.496Z,100.00
2023-02-22T07:17:56.502Z,100.00
2023-02-22T07:22:49.521Z,100.00
2023-02-22T07:27:42.500Z,100.00
2023-02-22T07:32:34.384Z,100.00
2023-02-22T07:37:26.081Z,100.00
2023-02-22T07:42:17.838Z,100.00
2023-02-22T07:47:12.684Z,100.00
2023-02-22T07:52:04.517Z,100.00
2023-02-22T07:56:56.235Z,100.00
2023-02-22T08:01:50.452Z,100.00
2023-02-22T08:06:42.134Z,100.00
2023-02-22T08:11:33.956Z,100.00
2023-02-22T08:16:25.667Z,100.00
2023-02-22T08:21:18.307Z,100.00
2023-02-22T08:26:15.713Z,100.00
2023-02-22T08:31:08.906Z,100.00
2023-02-22T08:36:01.744Z,100.00
2023-02-22T08:40:53.750Z,100.00
2023-02-22T08:45:46.443Z,100.00
2023-02-22T08:50:38.272Z,100.00
2023-02-22T08:55:36.026Z,100.00
2023-02-22T09:00:29.701Z,100.00
2023-02-22T09:05:21.553Z,100.00
2023-02-22T09:10:15.662Z,100.00
2023-02-22T09:15:07.764Z,100.00
2023-02-22T09:19:59.499Z,100.00
2023-02-22T09:24:52.777Z,100.00
2023-02-22T09:29:44.371Z,100.00
2023-02-22T09:34:36.063Z,100.00
2023-02-22T09:39:27.904Z,100.00
2023-02-22T09:44:28.353Z,100.00
2023-02-22T09:49:39.139Z,100.00
2023-02-22T09:54:38.521Z,100.00
2023-02-22T09:59:37.630Z,100.00
2023-02-22T10:04:47.892Z,100.00
2023-02-22T10:09:43.205Z,100.00
2023-02-22T10:14:44.193Z,100.00
2023-02-22T10:19:57.741Z,100.00
2023-02-22T10:25:04.997Z,100.00
2023-02-22T10:30:23.472Z,100.00
2023-02-22T10:35:37.507Z,100.00
2023-02-22T10:40:32.545Z,100.00
2023-02-22T10:45:28.543Z,100.00
2023-02-22T10:50:21.026Z,100.00
2023-02-22T10:55:16.095Z,99.86
2023-02-22T11:00:30.700Z,98.69
2023-02-22T11:05:38.488Z,98.67
2023-02-22T11:10:38.781Z,96.34
2023-02-22T11:15:31.351Z,96.71
2023-02-22T11:20:29.606Z,97.86
2023-02-22T11:25:28.918Z,97.08
2023-02-22T11:30:29.217Z,94.36
2023-02-22T11:35:32.638Z,89.52
2023-02-22T11:40:24.415Z,87.31
2023-02-22T11:45:23.859Z,88.20
2023-02-22T11:50:38.488Z,85.42
2023-02-22T11:55:43.682Z,82.32
2023-02-22T12:00:58.791Z,81.03
2023-02-22T12:06:24.973Z,81.67
2023-02-22T12:11:23.330Z,83.85
2023-02-22T12:16:32.089Z,78.85
2023-02-22T12:21:26.068Z,79.95
2023-02-22T12:26:40.010Z,83.48
2023-02-22T12:31:41.762Z,85.75
2023-02-22T12:36:40.332Z,87.54
2023-02-22T12:41:39.117Z,88.34
2023-02-22T12:46:36.706Z,89.05
2023-02-22T12:51:29.540Z,88.25
2023-02-22T12:56:28.158Z,87.24
2023-02-22T13:01:30.282Z,89.04
2023-02-22T13:06:51.119Z,89.18
2023-02-22T13:11:52.915Z,89.56
2023-02-22T13:17:11.002Z,91.29
2023-02-22T13:22:42.381Z,90.86
2023-02-22T13:27:40.746Z,89.01
2023-02-22T13:32:56.551Z,87.13
2023-02-22T13:37:48.132Z,83.94
2023-02-22T13:42:51.698Z,82.88
2023-02-22T13:48:24.498Z,82.95
2023-02-22T13:53:27.443Z,81.17
2023-02-22T13:58:19.097Z,83.80
2023-02-22T14:03:13.442Z,83.63
2023-02-22T14:08:06.032Z,81.33
2023-02-22T14:13:05.371Z,81.89
2023-02-22T14:17:56.944Z,82.46
2023-02-22T14:22:50.810Z,84.70
2023-02-22T14:27:42.756Z,86.50
2023-02-22T14:32:35.599Z,87.63
2023-02-22T14:37:31.167Z,89.89
2023-02-22T14:42:25.882Z,87.97
2023-02-22T14:47:29.661Z,81.83
2023-02-22T14:52:28.511Z,79.66
2023-02-22T14:57:29.564Z,78.81
2023-02-22T15:02:26.080Z,79.25
2023-02-22T15:07:31.011Z,78.87
2023-02-22T15:12:31.416Z,79.60
2023-02-22T15:17:25.045Z,79.05
2023-02-22T15:22:32.539Z,80.64
2023-02-22T15:27:24.360Z,80.59
2023-02-22T15:32:53.432Z,80.12
2023-02-22T15:38:11.489Z,79.51
2023-02-22T15:43:10.654Z,77.97
2023-02-22T15:48:03.416Z,78.18
2023-02-22T15:53:02.435Z,78.96
2023-02-22T15:57:54.451Z,80.17
2023-02-22T16:02:46.582Z,82.81
2023-02-22T16:07:50.316Z,82.88
2023-02-22T16:12:42.173Z,84.17
2023-02-22T16:18:02.418Z,84.08
2023-02-22T16:22:57.786Z,84.21
2023-02-22T16:28:01.607Z,85.68
2023-02-22T16:32:56.255Z,86.82
2023-02-22T16:37:50.963Z,87.24
2023-02-22T16:42:42.565Z,89.09
2023-02-22T16:47:34.187Z,89.44
2023-02-22T16:52:28.267Z,89.91
2023-02-22T16:57:22.735Z,90.25
2023-02-22T17:02:15.634Z,90.53
2023-02-22T17:07:09.367Z,89.14
2023-02-22T17:12:02.351Z,90.02
2023-02-22T17:16:53.970Z,90.07
2023-02-22T17:21:45.835Z,89.78
2023-02-22T17:26:37.463Z,90.26
2023-02-22T17:31:30.608Z,90.58
2023-02-22T17:36:23.618Z,90.67
2023-02-22T17:41:15.462Z,89.51
2023-02-22T17:46:08.186Z,90.03
2023-02-22T17:51:04.391Z,90.94
2023-02-22T17:55:55.997Z,91.56
2023-02-22T18:00:49.930Z,92.08
2023-02-22T18:05:47.387Z,92.08
2023-02-22T18:10:40.050Z,92.41
2023-02-22T18:15:35.731Z,92.97
2023-02-22T18:20:31.238Z,92.72
2023-02-22T18:25:22.885Z,94.21
2023-02-22T18:30:14.611Z,92.75
2023-02-22T18:35:07.425Z,92.90
2023-02-22T18:39:59.732Z,93.45
2023-02-22T18:44:52.730Z,93.40
2023-02-22T18:49:44.500Z,94.20
2023-02-22T18:54:38.536Z,93.61
2023-02-22T18:59:30.267Z,93.74
2023-02-22T19:04:22.030Z,94.44
2023-02-22T19:09:13.679Z,94.20
2023-02-22T19:14:05.357Z,95.43
2023-02-22T19:18:58.336Z,95.14
2023-02-22T19:23:51.014Z,95.64
2023-02-22T19:28:42.621Z,96.52
2023-02-22T19:33:34.226Z,96.07
2023-02-22T19:38:25.934Z,95.79
2023-02-22T19:43:17.566Z,95.41
2023-02-22T19:48:09.158Z,96.13
2023-02-22T19:53:00.787Z,96.01
2023-02-22T19:57:52.448Z,96.51
2023-02-22T20:02:44.008Z,96.35
2023-02-22T20:07:36.614Z,96.83
2023-02-22T20:12:28.228Z,95.76
2023-02-22T20:17:19.877Z,95.74
2023-02-22T20:22:11.888Z,95.89
2023-02-22T20:27:03.601Z,96.25
2023-02-22T20:31:57.874Z,96.08
2023-02-22T20:36:49.615Z,95.90
2023-02-22T20:41:43.618Z,95.95
2023-02-22T20:46:38.412Z,96.17
2023-02-22T20:51:30.677Z,96.56
2023-02-22T20:56:24.262Z,96.31
2023-02-22T21:01:19.526Z,96.16
2023-02-22T21:06:15.652Z,95.85
2023-02-22T21:11:15.375Z,96.00
2023-02-22T21:16:10.405Z,97.24
2023-02-22T21:21:10.460Z,96.91
2023-02-22T21:26:02.229Z,97.57
2023-02-22T21:35:49.488Z,98.35
2023-02-22T21:40:41.985Z,98.69
2023-02-22T21:45:35.417Z,96.94
2023-02-22T21:50:30.198Z,96.45
2023-02-22T21:55:22.802Z,97.21
2023-02-22T22:00:18.588Z,97.93
2023-02-22T22:05:10.229Z,99.25
2023-02-22T22:10:03.163Z,99.15
2023-02-22T22:14:55.384Z,98.99
2023-02-22T22:19:49.077Z,97.61
2023-02-22T22:24:45.704Z,95.99
2023-02-22T22:29:37.619Z,96.10
2023-02-22T22:34:29.886Z,95.80
2023-02-22T22:39:21.621Z,96.08
2023-02-22T22:44:15.833Z,96.62
2023-02-22T22:49:10.276Z,96.38
2023-02-22T22:54:02.381Z,95.96
2023-02-22T22:58:58.977Z,95.82
2023-02-22T23:03:58.259Z,95.94
2023-02-22T23:09:10.414Z,95.90
2023-02-22T23:14:04.865Z,95.36
2023-02-22T23:18:57.091Z,95.17
2023-02-22T23:23:52.550Z,94.77
2023-02-22T23:28:46.336Z,93.38
2023-02-22T23:33:38.514Z,92.35
2023-02-22T23:38:31.611Z,91.82
2023-02-22T23:43:25.785Z,91.45
2023-02-22T23:48:20.665Z,91.58
2023-02-22T23:53:15.337Z,91.43
2023-02-22T23:58:07.225Z,92.76
